createdAt,value
2022-12-03T00:01:49.086Z,32.83
2022-12-03T00:04:16.034Z,29.93
2022-12-03T00:06:42.919Z,25.80
2022-12-03T00:09:10.470Z,27.20
2022-12-03T00:11:38.120Z,32.93
2022-12-03T00:14:05.096Z,20.60
2022-12-03T00:16:34.051Z,26.10
2022-12-03T00:19:01.010Z,34.90
2022-12-03T00:21:29.505Z,26.97
2022-12-03T00:23:56.614Z,24.60
2022-12-03T00:26:23.554Z,24.23
2022-12-03T00:28:51.303Z,27.47
2022-12-03T00:31:18.776Z,28.80
2022-12-03T00:33:45.609Z,31.67
2022-12-03T00:36:12.445Z,22.03
2022-12-03T00:38:39.309Z,28.90
2022-12-03T00:41:06.156Z,32.17
2022-12-03T00:43:33.093Z,22.53
2022-12-03T00:46:00.296Z,64.77
2022-12-03T00:48:27.394Z,58.03
2022-12-03T00:50:54.273Z,46.90
2022-12-03T00:53:21.186Z,50.40
2022-12-03T00:55:50.646Z,39.10
2022-12-03T00:58:18.046Z,91.83
2022-12-03T01:00:44.932Z,26.10
2022-12-03T01:03:11.821Z,43.40
2022-12-03T01:05:38.762Z,40.10
2022-12-03T01:08:05.847Z,51.47
2022-12-03T01:10:32.781Z,44.50
2022-12-03T01:12:59.602Z,44.80
2022-12-03T01:15:26.434Z,34.60
2022-12-03T01:17:54.348Z,27.80
2022-12-03T01:20:21.256Z,42.33
2022-12-03T01:22:48.227Z,25.87
2022-12-03T01:25:15.170Z,38.83
2022-12-03T01:27:42.134Z,33.20
2022-12-03T01:30:09.760Z,35.73
2022-12-03T01:32:36.611Z,24.77
2022-12-03T01:35:04.952Z,30.20
2022-12-03T01:37:33.940Z,33.73
2022-12-03T01:40:00.764Z,29.80
2022-12-03T01:42:39.504Z,28.73
2022-12-03T01:45:07.362Z,27.53
2022-12-03T01:47:36.775Z,21.43
2022-12-03T01:50:30.444Z,31.80
2022-12-03T01:53:00.540Z,27.50
2022-12-03T01:55:27.769Z,27.20
2022-12-03T01:57:59.161Z,23.87
2022-12-03T02:00:27.766Z,28.43
2022-12-03T02:02:58.104Z,26.57
2022-12-03T02:05:30.048Z,24.30
2022-12-03T02:07:58.007Z,24.43
2022-12-03T02:10:34.567Z,27.73
2022-12-03T02:13:06.179Z,18.73
2022-12-03T02:15:33.338Z,20.93
2022-12-03T02:18:00.732Z,18.73
2022-12-03T02:20:27.839Z,21.27
2022-12-03T02:23:05.171Z,20.00
2022-12-03T02:25:34.710Z,21.30
2022-12-03T02:28:03.057Z,20.07
2022-12-03T02:30:31.335Z,16.93
2022-12-03T02:32:59.447Z,17.00
2022-12-03T02:35:30.263Z,21.10
2022-12-03T02:38:07.668Z,17.93
2022-12-03T02:40:34.740Z,21.40
2022-12-03T02:43:03.456Z,22.27
2022-12-03T02:45:42.893Z,21.77
2022-12-03T02:48:21.509Z,21.57
2022-12-03T02:50:58.901Z,25.10
2022-12-03T02:53:37.996Z,21.97
2022-12-03T02:56:05.598Z,26.63
2022-12-03T02:58:33.918Z,22.20
2022-12-03T03:01:03.973Z,20.53
2022-12-03T03:03:32.465Z,17.13
2022-12-03T03:06:02.387Z,17.77
2022-12-03T03:08:30.919Z,16.47
2022-12-03T03:11:00.589Z,16.90
2022-12-03T03:13:29.537Z,14.97
2022-12-03T03:15:56.660Z,19.60
2022-12-03T03:18:23.687Z,26.67
2022-12-03T03:20:50.610Z,20.60
2022-12-03T03:23:20.192Z,21.80
2022-12-03T03:25:54.052Z,21.93
2022-12-03T03:28:22.764Z,18.50
2022-12-03T03:30:49.793Z,23.37
2022-12-03T03:33:16.991Z,16.40
2022-12-03T03:35:45.401Z,17.00
2022-12-03T03:38:12.746Z,27.00
2022-12-03T03:40:39.932Z,38.70
2022-12-03T03:43:07.607Z,27.00
2022-12-03T03:45:34.764Z,29.87
2022-12-03T03:48:01.802Z,21.60
2022-12-03T03:50:30.951Z,30.47
2022-12-03T03:53:00.099Z,18.77
2022-12-03T03:55:27.466Z,24.60
2022-12-03T03:57:54.788Z,18.90
2022-12-03T04:00:22.022Z,22.23
2022-12-03T04:02:48.881Z,21.23
2022-12-03T04:05:19.167Z,18.73
2022-12-03T04:07:46.564Z,23.43
2022-12-03T04:10:33.131Z,21.90
2022-12-03T04:13:00.573Z,21.07
2022-12-03T04:15:28.518Z,24.57
2022-12-03T04:18:14.068Z,24.83
2022-12-03T04:20:41.716Z,20.40
2022-12-03T04:23:09.283Z,19.93
2022-12-03T04:25:55.023Z,17.23
2022-12-03T04:28:39.998Z,22.47
2022-12-03T04:31:25.912Z,28.40
2022-12-03T04:34:11.610Z,34.83
2022-12-03T04:36:38.675Z,27.03
2022-12-03T04:39:05.616Z,24.67
2022-12-03T04:41:32.581Z,23.87
2022-12-03T04:44:19.508Z,19.27
2022-12-03T04:46:46.310Z,17.17
2022-12-03T04:49:13.319Z,15.70
2022-12-03T04:51:40.174Z,15.93
2022-12-03T04:54:07.022Z,15.70
2022-12-03T04:56:33.888Z,14.10
2022-12-03T04:59:00.799Z,16.53
2022-12-03T05:01:27.852Z,17.57
2022-12-03T05:03:54.924Z,18.20
2022-12-03T05:06:21.991Z,12.43
2022-12-03T05:08:48.895Z,12.30
2022-12-03T05:11:15.838Z,14.10
2022-12-03T05:13:43.298Z,13.37
2022-12-03T05:16:10.537Z,13.63
2022-12-03T05:18:37.489Z,13.67
2022-12-03T05:21:04.497Z,16.00
2022-12-03T05:23:32.285Z,12.90
2022-12-03T05:25:59.126Z,17.87
2022-12-03T05:28:26.064Z,14.23
2022-12-03T05:30:53.058Z,14.97
2022-12-03T05:33:20.611Z,17.50
2022-12-03T05:35:47.862Z,19.83
2022-12-03T05:38:14.968Z,18.17
2022-12-03T05:40:42.116Z,21.23
2022-12-03T05:43:08.984Z,19.43
2022-12-03T05:45:38.875Z,21.50
2022-12-03T05:48:09.085Z,19.57
2022-12-03T05:50:38.395Z,23.67
2022-12-03T05:53:15.636Z,21.90
2022-12-03T05:55:42.617Z,25.50
2022-12-03T05:58:09.915Z,26.27
2022-12-03T06:00:42.329Z,22.50
2022-12-03T06:03:10.734Z,22.97
2022-12-03T06:05:37.977Z,23.77
2022-12-03T06:08:05.085Z,32.63
2022-12-03T06:10:32.573Z,36.93
2022-12-03T06:12:59.580Z,31.97
2022-12-03T06:15:26.929Z,27.97
2022-12-03T06:17:53.860Z,21.10
2022-12-03T06:20:21.529Z,27.20
2022-12-03T06:22:50.144Z,21.13
2022-12-03T06:25:17.425Z,18.97
2022-12-03T06:27:44.801Z,22.23
2022-12-03T06:30:14.858Z,23.57
2022-12-03T06:32:41.846Z,20.90
2022-12-03T06:40:24.459Z,26.10
2022-12-03T06:42:51.820Z,24.83
2022-12-03T06:45:26.226Z,23.27
2022-12-03T06:47:53.023Z,21.97
2022-12-03T06:50:19.844Z,16.23
2022-12-03T06:52:47.148Z,17.80
2022-12-03T06:55:14.156Z,14.87
2022-12-03T06:57:43.637Z,18.53
2022-12-03T07:00:11.158Z,14.00
2022-12-03T07:02:38.147Z,11.97
2022-12-03T07:05:05.646Z,14.07
2022-12-03T07:07:32.675Z,14.97
2022-12-03T07:09:59.798Z,12.07
2022-12-03T07:12:26.726Z,12.70
2022-12-03T07:14:54.016Z,11.03
2022-12-03T07:17:21.139Z,11.33
2022-12-03T07:19:49.639Z,13.53
2022-12-03T07:22:16.768Z,15.37
2022-12-03T07:24:43.862Z,13.23
2022-12-03T07:27:10.788Z,14.37
2022-12-03T07:29:37.688Z,12.77
2022-12-03T07:32:05.361Z,12.63
2022-12-03T07:34:32.258Z,14.93
2022-12-03T07:36:59.139Z,19.87
2022-12-03T07:39:26.186Z,20.23
2022-12-03T07:41:53.124Z,21.77
2022-12-03T07:44:20.009Z,23.23
2022-12-03T07:46:47.146Z,26.53
2022-12-03T07:49:14.155Z,23.97
2022-12-03T07:51:41.642Z,26.47
2022-12-03T07:54:08.882Z,24.90
2022-12-03T07:56:36.050Z,17.10
2022-12-03T07:59:03.049Z,16.73
2022-12-03T08:01:30.061Z,20.63
2022-12-03T08:03:57.264Z,20.07
2022-12-03T08:06:24.235Z,21.20
2022-12-03T08:08:51.619Z,26.07
2022-12-03T08:11:23.007Z,25.67
2022-12-03T08:13:49.871Z,30.17
2022-12-03T08:16:19.423Z,32.23
2022-12-03T08:18:47.560Z,31.40
2022-12-03T08:21:17.314Z,31.90
2022-12-03T08:23:44.333Z,28.53
2022-12-03T08:26:23.388Z,21.83
2022-12-03T08:28:51.411Z,19.70
2022-12-03T08:31:32.703Z,20.77
2022-12-03T08:34:20.689Z,28.67
2022-12-03T08:36:51.021Z,23.53
2022-12-03T08:39:34.361Z,28.17
2022-12-03T08:42:38.137Z,23.17
2022-12-03T08:45:32.575Z,19.33
2022-12-03T08:48:06.051Z,17.77
2022-12-03T08:50:39.418Z,17.93
2022-12-03T08:53:38.459Z,23.97
2022-12-03T08:56:33.247Z,22.33
2022-12-03T08:59:30.810Z,18.23
2022-12-03T09:02:00.836Z,17.60
2022-12-03T09:04:27.837Z,19.37
2022-12-03T09:06:55.556Z,21.80
2022-12-03T09:09:24.091Z,20.53
2022-12-03T09:11:51.203Z,19.93
2022-12-03T09:14:21.139Z,26.03
2022-12-03T09:16:49.235Z,19.00
2022-12-03T09:19:16.278Z,20.67
2022-12-03T09:21:43.841Z,16.20
2022-12-03T09:24:10.785Z,13.93
2022-12-03T09:26:37.873Z,16.40
2022-12-03T09:29:10.422Z,15.10
2022-12-03T09:31:39.068Z,14.33
2022-12-03T09:34:06.554Z,17.30
2022-12-03T09:36:33.865Z,15.13
2022-12-03T09:39:00.840Z,13.97
2022-12-03T09:41:27.871Z,14.13
2022-12-03T09:44:05.741Z,15.93
2022-12-03T09:46:36.288Z,15.03
2022-12-03T09:49:05.111Z,21.20
2022-12-03T09:51:35.342Z,17.80
2022-12-03T09:54:06.366Z,19.83
2022-12-03T09:56:37.698Z,19.20
2022-12-03T09:59:13.774Z,19.40
2022-12-03T10:01:40.965Z,16.83
2022-12-03T10:04:08.275Z,17.87
2022-12-03T10:06:37.138Z,11.13
2022-12-03T10:09:06.902Z,12.63
2022-12-03T10:11:35.770Z,15.60
2022-12-03T10:14:05.607Z,12.30
2022-12-03T10:16:36.448Z,13.50
2022-12-03T10:19:03.515Z,17.07
2022-12-03T10:21:39.156Z,19.83
2022-12-03T10:24:27.646Z,10.57
2022-12-03T10:26:57.925Z,11.57
2022-12-03T10:29:33.122Z,7.20
2022-12-03T10:32:02.367Z,7.57
2022-12-03T10:34:40.642Z,11.17
2022-12-03T10:37:18.139Z,8.30
2022-12-03T10:39:56.371Z,7.93
2022-12-03T10:42:25.589Z,13.80
2022-12-03T10:45:07.633Z,13.50
2022-12-03T10:47:34.617Z,9.07
2022-12-03T10:50:06.010Z,14.43
2022-12-03T10:52:32.957Z,13.90
2022-12-03T10:54:59.981Z,14.00
2022-12-03T10:57:26.877Z,13.37
2022-12-03T10:59:53.775Z,9.33
2022-12-03T11:02:24.770Z,8.93
2022-12-03T11:04:52.442Z,13.30
2022-12-03T11:07:21.541Z,16.90
2022-12-03T11:09:51.239Z,18.07
2022-12-03T11:12:22.663Z,20.53
2022-12-03T11:14:51.064Z,15.90
2022-12-03T11:17:40.480Z,15.93
2022-12-03T11:20:36.109Z,15.97
2022-12-03T11:23:02.998Z,14.87
2022-12-03T11:25:31.561Z,12.17
2022-12-03T11:28:10.355Z,16.70
2022-12-03T11:30:49.316Z,15.50
2022-12-03T11:33:27.623Z,12.10
2022-12-03T11:36:03.801Z,14.67
2022-12-03T11:38:59.909Z,19.53
2022-12-03T11:41:32.964Z,13.47
2022-12-03T11:44:25.300Z,13.53
2022-12-03T11:46:52.451Z,10.77
2022-12-03T11:49:45.803Z,19.27
2022-12-03T11:52:22.038Z,13.97
2022-12-03T11:54:53.362Z,8.40
2022-12-03T11:57:29.766Z,11.43
2022-12-03T11:59:58.934Z,8.30
2022-12-03T12:03:17.068Z,8.03
2022-12-03T12:05:45.242Z,7.63
2022-12-03T12:08:19.572Z,10.57
2022-12-03T12:10:48.780Z,10.93
2022-12-03T12:13:31.323Z,9.93
2022-12-03T12:16:02.657Z,10.43
2022-12-03T12:18:42.130Z,9.20
2022-12-03T12:21:44.262Z,9.20
2022-12-03T12:24:29.703Z,13.93
2022-12-03T12:26:58.556Z,9.03
2022-12-03T12:29:25.446Z,11.57
2022-12-03T12:31:59.632Z,8.80
2022-12-03T12:34:26.702Z,10.33
2022-12-03T12:36:57.158Z,10.73
2022-12-03T12:39:25.437Z,11.97
2022-12-03T12:41:52.893Z,15.23
2022-12-03T12:44:23.692Z,17.40
2022-12-03T12:46:53.758Z,12.97
2022-12-03T12:49:26.809Z,10.47
2022-12-03T12:51:53.945Z,10.83
2022-12-03T12:54:21.169Z,9.20
2022-12-03T12:56:50.386Z,13.73
2022-12-03T12:59:20.294Z,14.90
2022-12-03T13:01:49.226Z,14.40
2022-12-03T13:04:26.352Z,12.77
2022-12-03T13:06:54.189Z,13.30
2022-12-03T13:09:25.222Z,12.27
2022-12-03T13:11:54.169Z,15.67
2022-12-03T13:14:26.245Z,13.50
2022-12-03T13:16:55.280Z,9.77
2022-12-03T13:19:26.449Z,9.90
2022-12-03T13:22:00.149Z,12.27
2022-12-03T13:24:35.978Z,12.00
2022-12-03T13:27:31.904Z,12.57
2022-12-03T13:30:15.820Z,15.90
2022-12-03T13:32:43.676Z,15.20
2022-12-03T13:35:10.612Z,17.27
2022-12-03T13:37:38.529Z,18.47
2022-12-03T13:40:21.026Z,21.37
2022-12-03T13:42:48.579Z,18.07
2022-12-03T13:45:15.498Z,19.77
2022-12-03T13:47:49.189Z,17.40
2022-12-03T13:50:36.665Z,13.67
2022-12-03T13:53:26.692Z,16.63
2022-12-03T13:56:30.104Z,13.53
2022-12-03T13:59:00.169Z,11.80
2022-12-03T14:01:28.418Z,13.83
2022-12-03T14:03:55.422Z,14.27
2022-12-03T14:06:22.720Z,14.17
2022-12-03T14:08:49.605Z,16.23
2022-12-03T14:11:35.017Z,18.87
2022-12-03T14:14:02.024Z,13.77
2022-12-03T14:16:29.687Z,12.57
2022-12-03T14:18:56.520Z,12.17
2022-12-03T14:21:23.439Z,15.17
2022-12-03T14:23:50.332Z,14.87
2022-12-03T14:26:17.252Z,14.20
2022-12-03T14:28:44.099Z,14.60
2022-12-03T14:31:11.047Z,21.03
2022-12-03T14:33:37.985Z,18.73
2022-12-03T14:36:05.179Z,21.40
2022-12-03T14:38:32.164Z,16.00
2022-12-03T14:40:59.187Z,19.10
2022-12-03T14:43:26.070Z,15.90
2022-12-03T14:45:53.000Z,19.87
2022-12-03T14:48:21.104Z,14.23
2022-12-03T14:50:48.119Z,19.57
2022-12-03T14:53:15.001Z,17.17
2022-12-03T14:55:41.869Z,17.07
2022-12-03T14:58:08.708Z,16.20
2022-12-03T15:00:36.697Z,25.87
2022-12-03T15:03:03.730Z,22.17
2022-12-03T15:05:30.833Z,30.00
2022-12-03T15:07:57.836Z,22.33
2022-12-03T15:10:24.799Z,25.20
2022-12-03T15:19:33.273Z,19.20
2022-12-03T15:22:00.164Z,18.20
2022-12-03T15:24:27.091Z,17.60
2022-12-03T15:26:53.982Z,20.23
2022-12-03T15:29:21.021Z,24.27
2022-12-03T15:31:48.018Z,27.23
2022-12-03T15:34:20.460Z,24.37
2022-12-03T15:36:49.262Z,29.10
2022-12-03T15:39:16.143Z,19.80
2022-12-03T15:41:44.494Z,26.77
2022-12-03T15:44:11.385Z,26.83
2022-12-03T15:46:46.571Z,25.37
2022-12-03T15:49:14.366Z,19.87
2022-12-03T15:51:41.359Z,21.73
2022-12-03T15:54:09.008Z,18.13
2022-12-03T15:56:37.711Z,21.00
2022-12-03T15:59:04.765Z,23.13
2022-12-03T16:01:31.730Z,16.20
2022-12-03T16:03:58.681Z,14.50
2022-12-03T16:06:25.545Z,19.50
2022-12-03T16:08:52.363Z,19.73
2022-12-03T16:11:19.294Z,17.37
2022-12-03T16:13:46.247Z,16.63
2022-12-03T16:16:13.178Z,19.73
2022-12-03T16:18:40.143Z,22.93
2022-12-03T16:21:07.015Z,26.23
2022-12-03T16:23:34.043Z,27.53
2022-12-03T16:26:02.166Z,27.57
2022-12-03T16:28:29.072Z,31.03
2022-12-03T16:30:55.953Z,28.97
2022-12-03T16:33:27.560Z,25.97
2022-12-03T16:35:55.006Z,26.83
2022-12-03T16:38:21.931Z,31.87
2022-12-03T16:40:48.792Z,28.93
2022-12-03T16:43:16.015Z,29.90
2022-12-03T16:45:42.857Z,33.57
2022-12-03T16:48:09.767Z,39.47
2022-12-03T16:50:37.697Z,35.67
2022-12-03T16:53:04.617Z,36.07
2022-12-03T16:55:31.535Z,34.93
2022-12-03T16:57:58.451Z,31.83
2022-12-03T17:00:26.019Z,34.20
2022-12-03T17:02:53.015Z,30.93
2022-12-03T17:05:19.927Z,30.53
2022-12-03T17:07:46.935Z,38.90
2022-12-03T17:10:14.164Z,32.07
2022-12-03T17:13:08.210Z,36.73
2022-12-03T17:15:28.181Z,39.47
2022-12-03T17:17:55.149Z,39.70
2022-12-03T17:20:22.241Z,43.97
2022-12-03T17:22:49.284Z,42.43
2022-12-03T17:25:16.459Z,38.90
2022-12-03T17:27:45.466Z,37.30
2022-12-03T17:30:13.868Z,34.50
2022-12-03T17:32:40.784Z,29.43
2022-12-03T17:35:08.827Z,31.97
2022-12-03T17:37:36.173Z,32.57
2022-12-03T17:40:05.673Z,29.53
2022-12-03T17:42:32.592Z,28.93
2022-12-03T17:44:59.504Z,29.57
2022-12-03T17:47:26.348Z,30.10
2022-12-03T17:49:53.682Z,31.90
2022-12-03T17:52:20.914Z,27.53
2022-12-03T17:57:38.453Z,23.77
2022-12-03T18:00:08.577Z,24.30
2022-12-03T18:02:42.340Z,24.57
2022-12-03T18:05:10.130Z,23.73
2022-12-03T18:07:37.270Z,28.10
2022-12-03T18:10:04.694Z,25.33
2022-12-03T18:12:31.766Z,22.90
2022-12-03T18:14:58.650Z,23.57
2022-12-03T18:17:25.711Z,21.67
2022-12-03T18:19:52.951Z,14.90
2022-12-03T18:22:20.594Z,19.17
2022-12-03T18:24:51.530Z,22.00
2022-12-03T18:27:21.228Z,18.90
2022-12-03T18:29:48.720Z,15.43
2022-12-03T18:32:28.201Z,12.83
2022-12-03T18:34:57.046Z,14.87
2022-12-03T18:37:27.094Z,17.97
2022-12-03T18:39:55.235Z,14.90
2022-12-03T18:42:23.810Z,12.17
2022-12-03T18:44:52.803Z,14.50
2022-12-03T18:47:23.330Z,16.10
2022-12-03T18:49:51.187Z,11.10
2022-12-03T18:52:22.030Z,10.97
2022-12-03T18:54:49.313Z,14.00
2022-12-03T18:57:17.641Z,11.70
2022-12-03T18:59:44.654Z,15.03
2022-12-03T19:02:54.365Z,13.40
2022-12-03T19:05:11.111Z,16.40
2022-12-03T19:07:38.092Z,18.30
2022-12-03T19:10:05.867Z,17.07
2022-12-03T19:12:33.733Z,18.60
2022-12-03T19:15:01.139Z,17.17
2022-12-03T19:17:28.189Z,17.97
2022-12-03T19:19:55.705Z,14.47
2022-12-03T19:22:23.658Z,15.37
2022-12-03T19:24:50.717Z,15.40
2022-12-03T19:27:20.313Z,16.30
2022-12-03T19:29:50.344Z,15.07
2022-12-03T19:32:17.596Z,14.77
2022-12-03T19:34:44.476Z,18.80
2022-12-03T19:37:11.399Z,16.03
2022-12-03T19:39:38.453Z,19.77
2022-12-03T19:42:05.397Z,15.90
2022-12-03T19:44:32.900Z,16.50
2022-12-03T19:46:59.770Z,15.20
2022-12-03T19:49:27.259Z,16.63
2022-12-03T19:51:54.618Z,19.57
2022-12-03T19:54:21.494Z,15.60
2022-12-03T19:56:48.629Z,16.00
2022-12-03T19:59:15.806Z,17.23
2022-12-03T20:01:43.189Z,14.20
2022-12-03T20:04:11.134Z,15.20
2022-12-03T20:06:39.225Z,17.33
2022-12-03T20:09:17.633Z,15.50
2022-12-03T20:12:04.815Z,14.67
2022-12-03T20:29:41.976Z,13.97
2022-12-03T20:32:55.643Z,11.63
2022-12-03T20:35:23.588Z,13.97
2022-12-03T20:37:50.384Z,12.07
2022-12-03T20:40:17.572Z,12.83
2022-12-03T20:42:47.641Z,13.57
2022-12-03T20:45:15.117Z,13.00
2022-12-03T20:47:41.984Z,12.90
2022-12-03T20:50:09.219Z,11.87
2022-12-03T20:52:36.062Z,13.10
2022-12-03T20:55:02.896Z,15.30
2022-12-03T20:57:32.636Z,13.73
2022-12-03T20:59:59.613Z,17.37
2022-12-03T21:02:26.815Z,17.93
2022-12-03T21:04:53.844Z,15.63
2022-12-03T21:07:20.741Z,14.67
2022-12-03T21:09:47.580Z,16.83
2022-12-03T21:12:15.257Z,16.53
2022-12-03T21:14:42.274Z,20.50
2022-12-03T21:17:09.822Z,15.73
2022-12-03T21:19:38.761Z,21.90
2022-12-03T21:22:06.231Z,21.73
2022-12-03T21:24:33.675Z,21.43
2022-12-03T21:27:00.768Z,22.60
2022-12-03T21:29:27.641Z,20.50
2022-12-03T21:31:54.588Z,23.93
2022-12-03T21:34:21.660Z,23.83
2022-12-03T21:36:48.659Z,23.97
2022-12-03T21:39:15.597Z,28.67
2022-12-03T21:42:18.837Z,27.37
2022-12-03T21:44:29.355Z,29.80
2022-12-03T21:47:10.001Z,32.13
2022-12-03T21:49:41.484Z,32.57
2022-12-03T21:52:08.542Z,27.73
2022-12-03T21:54:35.509Z,32.00
2022-12-03T22:03:46.752Z,27.13
2022-12-03T22:06:14.377Z,26.43
2022-12-03T22:08:41.821Z,30.27
2022-12-03T22:11:15.079Z,31.93
2022-12-03T22:13:43.459Z,31.10
2022-12-03T22:16:16.286Z,29.07
2022-12-03T22:18:43.422Z,22.27
2022-12-03T22:21:13.240Z,24.07
2022-12-03T22:23:40.676Z,24.63
2022-12-03T22:26:12.028Z,22.73
2022-12-03T22:28:42.174Z,23.97
2022-12-03T22:31:09.751Z,27.40
2022-12-03T22:33:39.695Z,25.90
2022-12-03T22:36:13.407Z,27.90
2022-12-03T22:38:47.663Z,29.63
2022-12-03T22:41:15.746Z,29.57
2022-12-03T22:43:43.382Z,23.60
2022-12-03T22:46:12.754Z,27.00
2022-12-03T22:48:41.964Z,26.17
2022-12-03T22:51:26.795Z,27.43
2022-12-03T22:53:57.944Z,25.23
2022-12-03T22:56:26.168Z,25.47
2022-12-03T22:58:53.466Z,27.13
2022-12-03T23:01:23.041Z,23.60
2022-12-03T23:03:50.756Z,38.73
2022-12-03T23:06:18.699Z,27.30
2022-12-03T23:08:45.982Z,28.23
2022-12-03T23:11:12.903Z,27.77
2022-12-03T23:13:40.203Z,29.53
2022-12-03T23:16:08.852Z,25.27
2022-12-03T23:18:35.881Z,28.40
2022-12-03T23:21:02.818Z,26.40
2022-12-03T23:23:29.710Z,27.53
2022-12-03T23:26:04.388Z,30.03
2022-12-03T23:28:34.178Z,29.53
2022-12-03T23:31:01.247Z,29.13
2022-12-03T23:33:28.903Z,31.43
2022-12-03T23:35:55.781Z,33.53
2022-12-03T23:38:22.644Z,34.87
2022-12-03T23:40:49.759Z,33.53
2022-12-03T23:43:16.621Z,31.03
2022-12-03T23:45:43.478Z,34.90
2022-12-03T23:48:10.391Z,33.07
2022-12-03T23:50:41.319Z,29.40
2022-12-03T23:53:08.415Z,29.30
2022-12-03T23:55:39.281Z,34.43
2022-12-03T23:58:06.137Z,37.57
